createdAt,value
2022-08-21T00:00:29.144Z,94790.28
2022-08-21T00:03:07.150Z,94774.03
2022-08-21T00:05:50.781Z,94779.94
2022-08-21T00:08:20.049Z,94788.69
2022-08-21T00:10:48.908Z,94783.63
2022-08-21T00:13:18.968Z,94775.09
2022-08-21T00:15:47.359Z,94776.13
2022-08-21T00:18:14.549Z,94775.34
2022-08-21T00:20:43.792Z,94781.44
2022-08-21T00:23:11.700Z,94773.25
2022-08-21T00:25:39.137Z,94776.94
2022-08-21T00:28:07.436Z,94769.78
2022-08-21T00:30:36.152Z,94771.38
2022-08-21T00:33:04.294Z,94764.22
2022-08-21T00:35:38.027Z,94766.16
2022-08-21T00:38:07.666Z,94757.94
2022-08-21T00:40:49.748Z,94760.38
2022-08-21T00:43:25.176Z,94762.78
2022-08-21T00:45:53.902Z,94768.88
2022-08-21T00:48:22.651Z,94761.97
2022-08-21T00:51:27.633Z,94764.84
2022-08-21T00:54:01.015Z,94757.22
2022-08-21T00:56:30.353Z,94760.69
2022-08-21T00:58:59.503Z,94761.22
2022-08-21T01:01:26.929Z,94765.50
2022-08-21T01:03:54.308Z,94761.22
2022-08-21T01:06:21.884Z,94760.44
2022-08-21T01:08:49.408Z,94758.81
2022-08-21T01:11:17.175Z,94752.94
2022-08-21T01:13:47.373Z,94749.97
2022-08-21T01:16:18.195Z,94743.31
2022-08-21T01:18:48.606Z,94751.50
2022-08-21T01:21:28.032Z,94746.94
2022-08-21T01:23:58.352Z,94750.31
2022-08-21T01:26:34.489Z,94744.69
2022-08-21T01:29:23.468Z,94747.03
2022-08-21T01:31:51.265Z,94751.28
2022-08-21T01:34:21.821Z,94745.97
2022-08-21T01:36:49.141Z,94746.47
2022-08-21T01:39:16.649Z,94750.75
2022-08-21T01:41:44.651Z,94748.56
2022-08-21T01:44:12.023Z,94744.53
2022-08-21T01:46:39.432Z,94740.50
2022-08-21T01:49:07.069Z,94737.03
2022-08-21T01:51:34.140Z,94740.16
2022-08-21T01:54:01.626Z,94739.13
2022-08-21T01:56:29.044Z,94732.47
2022-08-21T01:58:56.516Z,94747.34
2022-08-21T02:01:23.991Z,94735.13
2022-08-21T02:03:50.947Z,94732.47
2022-08-21T02:06:19.236Z,94734.28
2022-08-21T02:08:48.108Z,94734.28
2022-08-21T02:11:15.957Z,94731.09
2022-08-21T02:13:43.191Z,94728.66
2022-08-21T02:16:11.372Z,94732.13
2022-08-21T02:18:40.792Z,94729.72
2022-08-21T02:21:07.964Z,94734.78
2022-08-21T02:23:35.239Z,94727.06
2022-08-21T02:26:05.941Z,94729.72
2022-08-21T02:28:34.449Z,94731.09
2022-08-21T02:31:02.255Z,94733.97
2022-08-21T02:33:30.094Z,94735.34
2022-08-21T02:35:57.606Z,94728.19
2022-08-21T02:38:30.386Z,94730.59
2022-08-21T02:40:58.772Z,94729.31
2022-08-21T02:43:28.612Z,94725.63
2022-08-21T02:45:58.142Z,94733.56
2022-08-21T02:48:29.303Z,94731.53
2022-08-21T02:51:07.913Z,94719.19
2022-08-21T02:53:36.351Z,94721.91
2022-08-21T02:56:08.339Z,94720.66
2022-08-21T02:58:42.777Z,94727.81
2022-08-21T03:01:11.203Z,94718.25
2022-08-21T03:03:42.752Z,94714.31
2022-08-21T03:06:14.493Z,94729.41
2022-08-21T03:08:42.105Z,94720.66
2022-08-21T03:11:10.202Z,94719.88
2022-08-21T03:13:38.065Z,94729.19
2022-08-21T03:16:05.989Z,94719.94
2022-08-21T03:18:37.152Z,94724.41
2022-08-21T03:21:05.694Z,94727.41
2022-08-21T03:23:33.356Z,94723.69
2022-08-21T03:26:01.579Z,94732.81
2022-08-21T03:28:29.206Z,94728.28
2022-08-21T03:30:56.582Z,94725.63
2022-08-21T03:33:24.333Z,94725.94
2022-08-21T03:36:06.557Z,94728.34
2022-08-21T03:38:35.887Z,94725.94
2022-08-21T03:41:04.905Z,94735.84
2022-08-21T03:43:32.953Z,94720.94
2022-08-21T03:46:04.334Z,94735.34
2022-08-21T03:48:35.446Z,94739.03
2022-08-21T03:51:03.440Z,94738.81
2022-08-21T03:53:31.234Z,94741.69
2022-08-21T03:55:58.643Z,94743.31
2022-08-21T03:58:28.523Z,94741.22
2022-08-21T04:01:00.461Z,94746.53
2022-08-21T04:03:28.621Z,94741.22
2022-08-21T04:05:55.720Z,94739.03
2022-08-21T04:08:23.285Z,94738.00
2022-08-21T04:10:55.477Z,94738.56
2022-08-21T04:13:23.070Z,94746.28
2022-08-21T04:15:50.976Z,94747.88
2022-08-21T04:18:18.683Z,94742.31
2022-08-21T04:20:50.504Z,94751.09
2022-08-21T04:23:23.554Z,94761.72
2022-08-21T04:25:56.825Z,94751.84
2022-08-21T04:28:27.223Z,94753.50
2022-08-21T04:30:57.560Z,94760.75
2022-08-21T04:33:25.360Z,94760.75
2022-08-21T04:35:52.914Z,94761.06
2022-08-21T04:38:20.224Z,94763.47
2022-08-21T04:40:47.736Z,94762.16
2022-08-21T04:43:15.188Z,94762.16
2022-08-21T04:45:45.843Z,94767.47
2022-08-21T04:48:16.576Z,94767.00
2022-08-21T04:51:07.999Z,94768.63
2022-08-21T04:53:39.155Z,94771.03
2022-08-21T04:56:14.044Z,94777.44
2022-08-21T04:58:42.744Z,94772.13
2022-08-21T05:01:17.052Z,94769.16
2022-08-21T05:03:45.600Z,94774.78
2022-08-21T05:06:15.425Z,94770.84
2022-08-21T05:08:44.558Z,94770.09
2022-08-21T05:11:12.321Z,94769.84
2022-08-21T05:13:40.818Z,94771.47
2022-08-21T05:16:08.344Z,94776.78
2022-08-21T05:18:35.637Z,94770.41
2022-08-21T05:21:03.647Z,94769.94
2022-08-21T05:23:30.819Z,94778.44
2022-08-21T05:25:58.468Z,94775.31
2022-08-21T05:28:26.914Z,94773.94
2022-08-21T05:30:54.556Z,94775.88
2022-08-21T05:33:21.685Z,94770.78
2022-08-21T05:35:53.112Z,94780.69
2022-08-21T05:38:21.076Z,94780.69
2022-08-21T05:40:48.470Z,94780.19
2022-08-21T05:43:16.257Z,94772.78
2022-08-21T05:45:44.533Z,94785.31
2022-08-21T05:48:16.886Z,94780.25
2022-08-21T05:50:45.548Z,94767.47
2022-08-21T05:53:13.856Z,94784.28
2022-08-21T05:55:45.659Z,94780.31
2022-08-21T05:58:20.182Z,94782.72
2022-08-21T06:00:49.308Z,94784.59
2022-08-21T06:03:26.737Z,94787.84
2022-08-21T06:05:54.813Z,94787.84
2022-08-21T06:08:23.499Z,94788.38
2022-08-21T06:10:53.061Z,94796.91
2022-08-21T06:13:21.965Z,94798.28
2022-08-21T06:15:50.088Z,94798.00
2022-08-21T06:18:17.872Z,94785.81
2022-08-21T06:20:45.329Z,94795.66
2022-08-21T06:23:12.436Z,94783.94
2022-08-21T06:25:39.492Z,94796.53
2022-08-21T06:28:10.173Z,94791.47
2022-08-21T06:30:39.689Z,94799.75
2022-08-21T06:33:08.547Z,94796.06
2022-08-21T06:35:37.128Z,94799.03
2022-08-21T06:38:09.306Z,94793.44
2022-08-21T06:40:37.401Z,94801.72
2022-08-21T06:43:16.114Z,94802.28
2022-08-21T06:45:45.287Z,94790.84
2022-08-21T06:48:18.887Z,94801.31
2022-08-21T06:50:47.054Z,94797.34
2022-08-21T06:53:19.029Z,94800.31
2022-08-21T06:55:48.046Z,94800.59
2022-08-21T06:58:15.813Z,94795.03
2022-08-21T07:00:46.484Z,94803.63
2022-08-21T07:03:30.136Z,94802.31
2022-08-21T07:06:00.744Z,94801.00
2022-08-21T07:08:29.176Z,94789.56
2022-08-21T07:10:59.156Z,94798.09
2022-08-21T07:13:27.625Z,94791.72
2022-08-21T07:15:54.749Z,94793.81
2022-08-21T07:18:24.396Z,94790.09
2022-08-21T07:20:51.997Z,94795.41
2022-08-21T07:23:42.144Z,94793.59
2022-08-21T07:26:11.129Z,94802.09
2022-08-21T07:28:38.372Z,94790.34
2022-08-21T07:31:06.629Z,94800.78
2022-08-21T07:33:36.471Z,94798.91
2022-08-21T07:36:04.710Z,94804.81
2022-08-21T07:38:31.813Z,94801.09
2022-08-21T07:41:02.473Z,94798.19
2022-08-21T07:43:30.945Z,94789.97
2022-08-21T07:45:58.390Z,94791.31
2022-08-21T07:48:25.827Z,94790.28
2022-08-21T07:50:53.332Z,94794.00
2022-08-21T07:53:20.824Z,94804.94
2022-08-21T07:55:48.241Z,94796.97
2022-08-21T07:58:15.352Z,94800.69
2022-08-21T08:00:42.486Z,94791.16
2022-08-21T08:03:09.623Z,94793.81
2022-08-21T08:05:40.855Z,94803.19
2022-08-21T08:08:08.769Z,94799.72
2022-08-21T08:10:37.844Z,94797.59
2022-08-21T08:13:05.006Z,94798.88
2022-08-21T08:15:41.780Z,94802.38
2022-08-21T08:18:09.869Z,94801.59
2022-08-21T08:20:37.197Z,94796.59
2022-08-21T08:23:04.421Z,94797.16
2022-08-21T08:25:33.358Z,94812.13
2022-08-21T08:28:12.782Z,94808.22
2022-08-21T08:30:44.369Z,94802.16
2022-08-21T08:33:11.687Z,94798.72
2022-08-21T08:35:39.316Z,94791.06
2022-08-21T08:38:06.840Z,94807.56
2022-08-21T08:41:10.953Z,94809.44
2022-08-21T08:43:37.993Z,94813.97
2022-08-21T08:46:13.852Z,94808.13
2022-08-21T08:48:53.490Z,94809.47
2022-08-21T08:51:32.092Z,94813.25
2022-08-21T08:54:05.266Z,94819.13
2022-08-21T08:56:35.441Z,94815.72
2022-08-21T08:59:19.853Z,94821.31
2022-08-21T09:01:47.328Z,94828.00
2022-08-21T09:04:22.419Z,94828.28
2022-08-21T09:07:40.096Z,94831.28
2022-08-21T09:10:37.120Z,94833.47
2022-08-21T09:13:38.616Z,94831.09
2022-08-21T09:16:43.053Z,94837.00
2022-08-21T09:19:52.163Z,94838.63
2022-08-21T09:22:48.341Z,94836.50
2022-08-21T09:25:26.680Z,94830.06
2022-08-21T09:27:54.246Z,94830.13
2022-08-21T09:30:30.656Z,94840.03
2022-08-21T09:32:58.138Z,94829.38
2022-08-21T09:35:26.864Z,94840.59
2022-08-21T09:38:03.389Z,94831.78
2022-08-21T09:40:45.128Z,94831.28
2022-08-21T09:43:15.052Z,94831.56
2022-08-21T09:45:46.192Z,94826.22
2022-08-21T09:48:26.330Z,94824.34
2022-08-21T09:51:12.529Z,94825.44
2022-08-21T09:53:46.880Z,94820.38
2022-08-21T09:56:54.073Z,94813.16
2022-08-21T09:59:36.340Z,94817.97
2022-08-21T10:02:32.667Z,94819.34
2022-08-21T10:05:09.977Z,94820.91
2022-08-21T10:07:39.681Z,94822.78
2022-08-21T10:10:22.844Z,94832.41
2022-08-21T10:13:09.500Z,94832.91
2022-08-21T10:16:03.210Z,94827.56
2022-08-21T10:18:50.754Z,94834.22
2022-08-21T10:21:22.498Z,94841.41
2022-08-21T10:24:30.452Z,94836.31
2022-08-21T10:27:14.755Z,94833.66
2022-08-21T10:30:01.506Z,94830.44
2022-08-21T10:32:50.783Z,94824.81
2022-08-21T10:35:32.898Z,94833.88
2022-08-21T10:39:25.881Z,94823.97
2022-08-21T10:41:47.748Z,94831.47
2022-08-21T10:44:47.284Z,94835.22
2022-08-21T10:47:21.800Z,94835.78
2022-08-21T10:50:16.601Z,94839.28
2022-08-21T10:53:04.653Z,94836.13
2022-08-21T10:55:46.081Z,94839.06
2022-08-21T10:58:25.651Z,94838.03
2022-08-21T11:01:00.223Z,94833.28
2022-08-21T11:03:45.788Z,94841.06
2022-08-21T11:06:20.797Z,94838.66
2022-08-21T11:09:05.585Z,94840.53
2022-08-21T11:11:59.431Z,94848.56
2022-08-21T11:15:08.882Z,94841.34
2022-08-21T11:18:34.145Z,94840.81
2022-08-21T11:21:17.283Z,94841.63
2022-08-21T11:24:33.488Z,94844.81
2022-08-21T11:27:27.992Z,94832.00
2022-08-21T11:29:59.363Z,94841.13
2022-08-21T11:32:56.252Z,94841.66
2022-08-21T11:36:06.273Z,94833.63
2022-08-21T11:38:43.011Z,94834.13
2022-08-21T11:41:31.264Z,94826.88
2022-08-21T11:44:18.653Z,94820.69
2022-08-21T11:47:07.201Z,94828.41
2022-08-21T11:50:34.784Z,94819.56
2022-08-21T11:53:42.146Z,94812.75
2022-08-21T11:56:48.283Z,94811.28
2022-08-21T11:59:41.889Z,94801.56
2022-08-21T12:02:22.653Z,94795.88
2022-08-21T12:05:08.865Z,94797.69
2022-08-21T12:07:44.096Z,94803.53
2022-08-21T12:10:23.379Z,94784.22
2022-08-21T12:12:50.430Z,94803.44
2022-08-21T12:15:23.550Z,94797.28
2022-08-21T12:18:26.708Z,94801.03
2022-08-21T12:21:21.988Z,94799.19
2022-08-21T12:24:06.460Z,94804.28
2022-08-21T12:26:39.286Z,94795.97
2022-08-21T12:29:24.221Z,94799.16
2022-08-21T12:32:11.502Z,94801.56
2022-08-21T12:34:52.184Z,94803.91
2022-08-21T12:37:46.454Z,94790.50
2022-08-21T12:40:24.236Z,94808.72
2022-08-21T12:42:58.956Z,94805.44
2022-08-21T12:45:44.318Z,94798.47
2022-08-21T12:48:31.006Z,94806.16
2022-08-21T12:51:23.974Z,94798.31
2022-08-21T12:53:58.104Z,94796.34
2022-08-21T12:56:31.681Z,94800.03
2022-08-21T12:59:08.641Z,94795.34
2022-08-21T13:01:53.356Z,94795.00
2022-08-21T13:04:33.426Z,94793.50
2022-08-21T13:07:01.528Z,94786.47
2022-08-21T13:09:32.094Z,94781.09
2022-08-21T13:12:01.112Z,94777.72
2022-08-21T13:14:50.040Z,94781.38
2022-08-21T13:17:23.703Z,94782.84
2022-08-21T13:20:11.527Z,94787.81
2022-08-21T13:22:44.760Z,94782.28
2022-08-21T13:25:19.397Z,94775.25
2022-08-21T13:28:01.606Z,94790.41
2022-08-21T13:30:31.544Z,94794.19
2022-08-21T13:33:02.504Z,94791.81
2022-08-21T13:35:38.112Z,94785.31
2022-08-21T13:38:06.491Z,94779.38
2022-08-21T13:40:48.033Z,94790.34
2022-08-21T13:43:21.149Z,94782.56
2022-08-21T13:45:52.257Z,94778.28
2022-08-21T13:48:21.145Z,94781.47
2022-08-21T13:50:49.138Z,94786.56
2022-08-21T13:53:42.332Z,94777.19
2022-08-21T13:56:09.540Z,94779.59
2022-08-21T13:58:47.289Z,94775.50
2022-08-21T14:01:29.132Z,94770.94
2022-08-21T14:04:21.908Z,94767.09
2022-08-21T14:06:49.879Z,94773.47
2022-08-21T14:09:43.017Z,94771.00
2022-08-21T14:12:30.831Z,94762.63
2022-08-21T14:14:58.884Z,94762.28
2022-08-21T14:17:36.733Z,94760.81
2022-08-21T14:20:08.463Z,94763.13
2022-08-21T14:22:49.392Z,94765.22
2022-08-21T14:25:28.711Z,94758.97
2022-08-21T14:28:09.887Z,94756.19
2022-08-21T14:30:44.157Z,94754.69
2022-08-21T14:33:32.335Z,94754.41
2022-08-21T14:36:01.853Z,94749.50
2022-08-21T14:38:30.284Z,94742.16
2022-08-21T14:41:17.969Z,94745.25
2022-08-21T14:43:47.207Z,94731.28
2022-08-21T14:46:23.650Z,94743.28
2022-08-21T14:48:51.389Z,94728.31
2022-08-21T14:51:19.026Z,94734.78
2022-08-21T14:53:46.736Z,94738.56
2022-08-21T14:56:14.715Z,94731.50
2022-08-21T14:58:46.409Z,94751.31
2022-08-21T15:01:16.056Z,94744.78
2022-08-21T15:03:43.522Z,94750.84
2022-08-21T15:06:11.748Z,94749.94
2022-08-21T15:08:39.501Z,94746.59
2022-08-21T15:11:12.415Z,94743.78
2022-08-21T15:13:42.615Z,94743.13
2022-08-21T15:16:13.299Z,94743.50
2022-08-21T15:18:42.887Z,94743.06
2022-08-21T15:21:12.693Z,94729.81
2022-08-21T15:23:43.640Z,94740.03
2022-08-21T15:26:12.071Z,94748.97
2022-08-21T15:28:39.737Z,94736.25
2022-08-21T15:31:07.472Z,94728.91
2022-08-21T15:33:37.636Z,94736.75
2022-08-21T15:36:05.260Z,94735.25
2022-08-21T15:38:32.345Z,94731.97
2022-08-21T15:40:59.582Z,94738.78
2022-08-21T15:43:36.829Z,94734.09
2022-08-21T15:46:03.916Z,94734.75
2022-08-21T15:48:30.870Z,94729.56
2022-08-21T15:50:58.198Z,94727.00
2022-08-21T15:53:25.270Z,94732.66
2022-08-21T15:55:52.747Z,94732.19
2022-08-21T15:58:21.632Z,94734.94
2022-08-21T16:00:49.266Z,94736.59
2022-08-21T16:03:20.626Z,94731.53
2022-08-21T16:05:50.289Z,94738.50
2022-08-21T16:08:18.912Z,94740.66
2022-08-21T16:10:46.647Z,94742.59
2022-08-21T16:13:23.396Z,94746.06
2022-08-21T16:15:51.120Z,94748.47
2022-08-21T16:18:19.337Z,94741.25
2022-08-21T16:20:46.544Z,94748.28
2022-08-21T16:23:13.815Z,94746.72
2022-08-21T16:25:43.176Z,94744.88
2022-08-21T16:28:14.972Z,94752.94
2022-08-21T16:30:44.257Z,94755.66
2022-08-21T16:33:34.194Z,94756.25
2022-08-21T16:36:02.248Z,94752.78
2022-08-21T16:38:32.541Z,94760.56
2022-08-21T16:41:00.431Z,94755.25
2022-08-21T16:43:29.889Z,94761.44
2022-08-21T16:45:58.588Z,94751.56
2022-08-21T16:48:25.784Z,94754.81
2022-08-21T16:50:53.040Z,94759.91
2022-08-21T16:53:20.153Z,94747.59
2022-08-21T16:55:47.677Z,94765.50
2022-08-21T16:58:26.745Z,94751.91
2022-08-21T17:00:54.509Z,94759.94
2022-08-21T17:03:33.926Z,94759.44
2022-08-21T17:06:01.577Z,94758.66
2022-08-21T17:08:28.818Z,94763.75
2022-08-21T17:10:56.448Z,94770.19
2022-08-21T17:13:23.576Z,94762.19
2022-08-21T17:15:50.749Z,94769.66
2022-08-21T17:18:21.609Z,94765.13
2022-08-21T17:20:48.951Z,94769.69
2022-08-21T17:23:17.895Z,94764.59
2022-08-21T17:25:49.115Z,94773.97
2022-08-21T17:28:24.255Z,94767.28
2022-08-21T17:30:54.926Z,94761.19
2022-08-21T17:33:25.864Z,94765.41
2022-08-21T17:35:53.827Z,94764.38
2022-08-21T17:38:21.427Z,94770.50
2022-08-21T17:40:49.785Z,94764.13
2022-08-21T17:43:16.949Z,94770.53
2022-08-21T17:45:45.266Z,94765.47
2022-08-21T17:48:14.005Z,94769.22
2022-08-21T17:50:41.133Z,94774.56
2022-08-21T17:53:10.025Z,94766.03
2022-08-21T17:55:37.256Z,94766.25
2022-08-21T17:58:05.442Z,94770.56
2022-08-21T18:00:33.027Z,94768.16
2022-08-21T18:03:20.523Z,94777.78
2022-08-21T18:05:51.681Z,94776.72
2022-08-21T18:08:19.377Z,94779.38
2022-08-21T18:10:48.597Z,94777.25
2022-08-21T18:13:24.651Z,94783.66
2022-08-21T18:15:54.148Z,94782.59
2022-08-21T18:18:23.174Z,94783.09
2022-08-21T18:20:51.267Z,94779.34
2022-08-21T18:23:18.948Z,94784.38
2022-08-21T18:25:56.367Z,94780.88
2022-08-21T18:28:25.838Z,94776.06
2022-08-21T18:30:54.641Z,94788.88
2022-08-21T18:33:24.495Z,94782.44
2022-08-21T18:35:52.061Z,94787.75
2022-08-21T18:38:21.212Z,94794.13
2022-08-21T18:40:55.912Z,94793.31
2022-08-21T18:43:24.414Z,94789.28
2022-08-21T18:45:51.691Z,94799.09
2022-08-21T18:48:19.015Z,94797.50
2022-08-21T18:50:48.121Z,94800.97
2022-08-21T18:53:24.018Z,94800.91
2022-08-21T18:55:57.082Z,94805.19
2022-08-21T18:58:26.051Z,94809.41
2022-08-21T19:00:55.487Z,94800.81
2022-08-21T19:03:24.921Z,94806.41
2022-08-21T19:11:09.333Z,94807.09
2022-08-21T19:13:36.789Z,94807.34
2022-08-21T19:16:08.165Z,94804.91
2022-08-21T19:23:35.623Z,94802.22
2022-08-21T19:26:07.031Z,94801.94
2022-08-21T19:28:41.983Z,94798.72
2022-08-21T19:31:24.593Z,94805.13
2022-08-21T19:34:16.561Z,94796.03
2022-08-21T19:36:44.822Z,94799.75
2022-08-21T19:39:14.079Z,94792.84
2022-08-21T19:41:46.585Z,94798.38
2022-08-21T19:44:25.065Z,94802.09
2022-08-21T19:46:55.141Z,94802.09
2022-08-21T19:49:33.392Z,94791.97
2022-08-21T19:52:02.293Z,94800.53
2022-08-21T19:54:40.632Z,94802.63
2022-08-21T19:57:11.093Z,94794.91
2022-08-21T19:59:40.728Z,94803.94
2022-08-21T20:02:10.582Z,94799.66
2022-08-21T20:04:38.946Z,94801.53
2022-08-21T20:07:26.386Z,94794.84
2022-08-21T20:09:55.617Z,94791.66
2022-08-21T20:12:24.595Z,94783.38
2022-08-21T20:14:53.394Z,94787.63
2022-08-21T20:17:21.250Z,94782.03
2022-08-21T20:19:54.372Z,94777.75
2022-08-21T20:22:23.979Z,94771.84
2022-08-21T20:24:51.966Z,94777.72
2022-08-21T20:27:24.881Z,94783.28
2022-08-21T20:29:52.203Z,94778.47
2022-08-21T20:32:19.158Z,94780.00
2022-08-21T20:34:51.769Z,94778.97
2022-08-21T20:37:22.414Z,94784.56
2022-08-21T20:42:58.634Z,94783.44
2022-08-21T20:45:33.245Z,94781.81
2022-08-21T20:48:49.560Z,94779.09
2022-08-21T20:51:33.452Z,94779.34
2022-08-21T20:54:25.692Z,94778.25
2022-08-21T20:57:04.733Z,94775.59
2022-08-21T20:59:58.717Z,94777.13
2022-08-21T21:02:57.211Z,94776.84
2022-08-21T21:05:31.184Z,94772.34
2022-08-21T21:08:14.419Z,94776.84
2022-08-21T21:11:18.324Z,94772.28
2022-08-21T21:13:50.118Z,94776.00
2022-08-21T21:16:31.097Z,94771.47
2022-08-21T21:19:07.109Z,94774.41
2022-08-21T21:21:51.634Z,94773.59
2022-08-21T21:25:04.594Z,94774.88
2022-08-21T21:27:49.124Z,94778.84
2022-08-21T21:30:46.474Z,94770.28
2022-08-21T21:33:19.335Z,94784.94
2022-08-21T21:35:59.795Z,94782.78
2022-08-21T21:38:51.383Z,94781.44
2022-08-21T21:41:42.926Z,94779.81
2022-08-21T21:44:49.862Z,94775.00
2022-08-21T21:47:45.780Z,94775.25
2022-08-21T21:53:56.621Z,94782.13
2022-08-21T21:56:33.559Z,94781.31
2022-08-21T21:59:23.133Z,94775.19
2022-08-21T22:02:12.769Z,94778.91
2022-08-21T22:05:26.864Z,94773.28
2022-08-21T22:08:10.313Z,94767.16
2022-08-21T22:10:47.241Z,94770.09
2022-08-21T22:13:55.022Z,94766.03
2022-08-21T22:16:23.345Z,94772.66
2022-08-21T22:19:00.512Z,94768.16
2022-08-21T22:21:40.325Z,94768.16
2022-08-21T22:24:28.245Z,94763.34
2022-08-21T22:27:03.633Z,94767.88
2022-08-21T22:30:08.249Z,94769.97
2022-08-21T22:32:49.093Z,94771.00
2022-08-21T22:38:36.936Z,94768.59
2022-08-21T22:41:28.073Z,94761.69
2022-08-21T22:44:06.990Z,94762.72
2022-08-21T22:47:00.801Z,94768.03
2022-08-21T22:49:43.545Z,94767.00
2022-08-21T22:52:25.359Z,94775.22
2022-08-21T22:55:01.732Z,94769.09
2022-08-21T22:57:35.384Z,94763.47
2022-08-21T23:00:15.103Z,94770.16
2022-08-21T23:03:05.750Z,94769.59
2022-08-21T23:05:44.233Z,94766.69
2022-08-21T23:08:38.121Z,94762.09
2022-08-21T23:11:23.303Z,94769.03
2022-08-21T23:13:53.785Z,94766.13
2022-08-21T23:17:09.477Z,94767.41
2022-08-21T23:19:48.268Z,94770.66
2022-08-21T23:22:53.001Z,94765.03
2022-08-21T23:25:54.874Z,94765.28
2022-08-21T23:28:55.285Z,94767.69
2022-08-21T23:32:00.455Z,94762.63
2022-08-21T23:34:45.693Z,94767.13
2022-08-21T23:37:49.034Z,94767.13
2022-08-21T23:40:51.150Z,94765.97
2022-08-21T23:43:47.067Z,94758.00
2022-08-21T23:46:35.420Z,94754.56
2022-08-21T23:49:57.022Z,94751.34
2022-08-21T23:52:59.865Z,94755.84
2022-08-21T23:56:12.540Z,94749.69
2022-08-21T23:59:00.067Z,94754.16
